createdAt,value
2018-10-11T00:01:14.516Z,14.25
2018-10-11T00:03:42.694Z,14.19
2018-10-11T00:06:10.916Z,14.25
2018-10-11T00:08:39.102Z,14.22
2018-10-11T00:11:07.556Z,14.20
2018-10-11T00:13:35.733Z,14.18
2018-10-11T00:16:03.902Z,14.01
2018-10-11T00:18:32.129Z,14.15
2018-10-11T00:21:00.316Z,14.21
2018-10-11T00:23:28.496Z,14.17
2018-10-11T00:25:56.767Z,14.04
2018-10-11T00:28:25.045Z,13.98
2018-10-11T00:30:53.213Z,13.91
2018-10-11T00:33:21.419Z,13.92
2018-10-11T00:35:49.591Z,13.85
2018-10-11T00:38:17.802Z,13.88
2018-10-11T00:40:45.967Z,13.87
2018-10-11T00:43:14.217Z,13.85
2018-10-11T00:45:42.435Z,13.87
2018-10-11T00:48:11.168Z,13.96
2018-10-11T00:50:39.480Z,13.96
2018-10-11T00:53:07.666Z,13.96
2018-10-11T00:55:35.805Z,13.99
2018-10-11T00:58:04.108Z,13.91
2018-10-11T01:00:32.265Z,13.91
2018-10-11T01:03:00.439Z,13.88
2018-10-11T01:05:28.667Z,13.81
2018-10-11T01:07:56.932Z,13.84
2018-10-11T01:10:25.324Z,13.84
2018-10-11T01:12:53.584Z,13.84
2018-10-11T01:15:21.854Z,13.83
2018-10-11T01:17:50.016Z,13.80
2018-10-11T01:20:18.165Z,13.75
2018-10-11T01:22:46.870Z,13.77
2018-10-11T01:25:15.087Z,13.66
2018-10-11T01:27:43.308Z,13.64
2018-10-11T01:30:11.572Z,13.58
2018-10-11T01:32:39.640Z,13.59
2018-10-11T01:35:08.187Z,13.57
2018-10-11T01:37:36.347Z,13.61
2018-10-11T01:40:04.517Z,13.53
2018-10-11T01:42:32.692Z,13.51
2018-10-11T01:45:00.841Z,13.37
2018-10-11T01:47:28.980Z,13.32
2018-10-11T01:49:57.181Z,13.20
2018-10-11T01:52:25.393Z,13.18
2018-10-11T01:54:53.604Z,13.25
2018-10-11T01:57:21.809Z,13.36
2018-10-11T01:59:49.987Z,13.22
2018-10-11T02:02:18.198Z,13.33
2018-10-11T02:04:46.366Z,13.40
2018-10-11T02:07:14.615Z,13.19
2018-10-11T02:09:42.808Z,13.24
2018-10-11T02:12:11.064Z,13.23
2018-10-11T02:14:39.224Z,13.39
2018-10-11T02:17:07.386Z,13.36
2018-10-11T02:19:35.568Z,13.28
2018-10-11T02:22:03.732Z,13.23
2018-10-11T02:24:31.930Z,13.09
2018-10-11T02:27:00.174Z,13.07
2018-10-11T02:29:28.421Z,13.11
2018-10-11T02:31:56.600Z,13.08
2018-10-11T02:34:24.778Z,12.93
2018-10-11T02:36:52.933Z,12.96
2018-10-11T02:39:21.090Z,12.95
2018-10-11T02:41:49.199Z,12.95
2018-10-11T02:44:17.427Z,12.90
2018-10-11T02:46:45.616Z,12.85
2018-10-11T02:49:13.774Z,12.82
2018-10-11T02:51:42.000Z,12.79
2018-10-11T02:54:10.185Z,12.75
2018-10-11T02:56:38.316Z,12.60
2018-10-11T02:59:17.652Z,12.67
2018-10-11T03:01:45.825Z,12.55
2018-10-11T03:04:14.066Z,12.59
2018-10-11T03:06:42.377Z,12.45
2018-10-11T03:09:11.153Z,12.43
2018-10-11T03:11:39.566Z,12.48
2018-10-11T03:14:07.720Z,12.53
2018-10-11T03:19:35.589Z,12.50
2018-10-11T03:22:03.829Z,12.49
2018-10-11T03:24:31.993Z,12.54
2018-10-11T03:27:00.993Z,12.47
2018-10-11T03:29:30.523Z,12.52
2018-10-11T03:31:58.689Z,12.50
2018-10-11T03:34:28.270Z,12.45
2018-10-11T03:36:57.431Z,12.42
2018-10-11T03:39:25.931Z,12.43
2018-10-11T03:41:54.537Z,12.38
2018-10-11T03:44:22.708Z,12.30
2018-10-11T03:46:50.881Z,12.41
2018-10-11T03:49:19.628Z,12.50
2018-10-11T03:51:48.294Z,12.33
2018-10-11T03:54:16.473Z,12.40
2018-10-11T03:56:44.647Z,12.36
2018-10-11T03:59:13.229Z,12.32
2018-10-11T04:01:41.505Z,12.33
2018-10-11T04:04:09.679Z,12.30
2018-10-11T04:06:37.861Z,12.29
2018-10-11T04:09:06.950Z,12.31
2018-10-11T04:11:35.178Z,12.21
2018-10-11T04:14:03.355Z,12.21
2018-10-11T04:16:31.547Z,12.29
2018-10-11T04:18:59.704Z,12.22
2018-10-11T04:21:28.084Z,12.30
2018-10-11T04:23:56.300Z,12.34
2018-10-11T04:26:24.510Z,12.32
2018-10-11T04:28:52.720Z,12.37
2018-10-11T04:31:20.994Z,12.40
2018-10-11T04:33:49.256Z,12.25
2018-10-11T04:36:17.595Z,12.22
2018-10-11T04:38:46.060Z,12.26
2018-10-11T04:41:14.250Z,12.25
2018-10-11T04:43:42.509Z,12.30
2018-10-11T04:46:10.693Z,12.25
2018-10-11T04:48:38.857Z,12.21
2018-10-11T04:51:07.066Z,12.27
2018-10-11T04:53:35.277Z,12.22
2018-10-11T04:56:03.401Z,12.33
2018-10-11T04:58:31.548Z,12.29
2018-10-11T05:00:59.776Z,12.23
2018-10-11T05:03:28.116Z,12.30
2018-10-11T05:05:56.423Z,12.19
2018-10-11T05:08:24.698Z,12.22
2018-10-11T05:10:52.939Z,12.24
2018-10-11T05:13:37.296Z,12.18
2018-10-11T05:16:05.521Z,12.18
2018-10-11T05:18:34.554Z,12.29
2018-10-11T05:21:02.869Z,12.27
2018-10-11T05:23:31.195Z,12.24
2018-10-11T05:25:59.401Z,12.17
2018-10-11T05:28:27.557Z,12.19
2018-10-11T05:30:56.297Z,12.17
2018-10-11T05:33:24.828Z,12.21
2018-10-11T05:35:53.126Z,12.23
2018-10-11T05:38:21.415Z,12.24
2018-10-11T05:40:49.563Z,12.14
2018-10-11T05:43:17.995Z,12.30
2018-10-11T05:45:50.737Z,12.30
2018-10-11T05:48:18.901Z,12.32
2018-10-11T05:50:47.177Z,12.31
2018-10-11T05:53:15.410Z,12.35
2018-10-11T05:55:43.623Z,12.33
2018-10-11T05:58:12.409Z,12.39
2018-10-11T06:00:40.656Z,12.46
2018-10-11T06:03:09.008Z,12.42
2018-10-11T06:05:37.227Z,12.50
2018-10-11T06:08:05.650Z,12.41
2018-10-11T06:10:36.224Z,12.57
2018-10-11T06:13:06.100Z,12.59
2018-10-11T06:15:34.920Z,12.62
2018-10-11T06:18:03.408Z,12.72
2018-10-11T06:20:32.403Z,12.83
2018-10-11T06:23:00.644Z,12.85
2018-10-11T06:25:28.891Z,12.88
2018-10-11T06:27:57.307Z,12.92
2018-10-11T06:30:25.967Z,12.97
2018-10-11T06:32:54.175Z,12.99
2018-10-11T06:35:23.267Z,12.98
2018-10-11T06:37:51.998Z,13.07
2018-10-11T06:40:21.139Z,13.21
2018-10-11T06:42:49.858Z,13.35
2018-10-11T06:45:17.929Z,13.32
2018-10-11T06:47:49.066Z,13.48
2018-10-11T06:50:17.381Z,13.52
2018-10-11T06:52:45.647Z,13.64
2018-10-11T06:55:14.821Z,13.75
2018-10-11T06:57:43.098Z,13.90
2018-10-11T07:00:11.354Z,14.03
2018-10-11T07:02:39.663Z,14.11
2018-10-11T07:05:07.956Z,14.18
2018-10-11T07:07:36.202Z,14.26
2018-10-11T07:10:04.432Z,14.30
2018-10-11T07:12:32.760Z,14.29
2018-10-11T07:15:01.072Z,14.35
2018-10-11T07:17:31.976Z,14.45
2018-10-11T07:20:01.232Z,14.45
2018-10-11T07:22:29.642Z,14.62
2018-10-11T07:24:58.083Z,14.55
2018-10-11T07:27:26.354Z,14.74
2018-10-11T07:29:54.563Z,14.80
2018-10-11T07:32:22.830Z,14.83
2018-10-11T07:34:52.876Z,14.92
2018-10-11T07:37:21.160Z,14.82
2018-10-11T07:39:49.400Z,14.99
2018-10-11T07:42:17.680Z,15.05
2018-10-11T07:44:46.251Z,15.03
2018-10-11T07:47:14.509Z,15.16
2018-10-11T07:49:48.666Z,15.13
2018-10-11T07:52:18.017Z,15.23
2018-10-11T07:54:46.929Z,15.29
2018-10-11T07:57:15.168Z,15.36
2018-10-11T07:59:43.352Z,15.39
2018-10-11T08:02:11.520Z,15.52
2018-10-11T08:04:39.799Z,15.50
2018-10-11T08:07:08.434Z,15.44
2018-10-11T08:09:36.769Z,15.50
2018-10-11T08:12:09.060Z,15.53
2018-10-11T08:14:37.324Z,15.64
2018-10-11T08:17:05.842Z,15.71
2018-10-11T08:19:33.953Z,15.83
2018-10-11T08:22:02.036Z,15.86
2018-10-11T08:24:30.310Z,15.89
2018-10-11T08:26:58.632Z,15.95
2018-10-11T08:29:26.700Z,15.95
2018-10-11T08:31:54.872Z,16.09
2018-10-11T08:34:23.077Z,16.16
2018-10-11T08:36:51.242Z,16.33
2018-10-11T08:39:19.432Z,16.53
2018-10-11T08:41:47.668Z,16.71
2018-10-11T08:44:16.117Z,16.71
2018-10-11T08:46:44.216Z,16.67
2018-10-11T08:49:12.456Z,16.78
2018-10-11T08:51:40.568Z,16.86
2018-10-11T08:54:14.821Z,16.91
2018-10-11T08:56:43.172Z,16.93
2018-10-11T08:59:12.034Z,16.93
2018-10-11T09:01:40.247Z,17.24
2018-10-11T09:04:08.805Z,17.55
2018-10-11T09:06:37.169Z,17.83
2018-10-11T09:09:07.126Z,17.84
2018-10-11T09:11:35.875Z,17.84
2018-10-11T09:14:04.149Z,17.70
2018-10-11T09:16:34.398Z,17.90
2018-10-11T09:19:02.611Z,17.88
2018-10-11T09:21:31.099Z,18.02
2018-10-11T09:23:59.330Z,18.32
2018-10-11T09:26:27.580Z,18.17
2018-10-11T09:28:56.638Z,18.33
2018-10-11T09:31:25.008Z,18.38
2018-10-11T09:33:53.808Z,18.35
2018-10-11T09:36:22.162Z,18.60
2018-10-11T09:38:51.156Z,18.64
2018-10-11T09:41:19.836Z,18.89
2018-10-11T09:43:48.346Z,18.88
2018-10-11T09:46:16.524Z,18.77
2018-10-11T09:48:44.783Z,18.75
2018-10-11T09:51:13.514Z,18.68
2018-10-11T09:53:42.035Z,19.06
2018-10-11T09:56:10.305Z,18.97
2018-10-11T09:58:38.763Z,19.25
2018-10-11T10:01:12.384Z,19.41
2018-10-11T10:03:40.750Z,19.25
2018-10-11T10:06:09.048Z,19.47
2018-10-11T10:08:37.514Z,19.50
2018-10-11T10:11:05.703Z,19.71
2018-10-11T10:13:34.307Z,19.54
2018-10-11T10:16:02.584Z,19.41
2018-10-11T10:18:30.945Z,19.53
2018-10-11T10:20:59.125Z,19.55
2018-10-11T10:23:27.440Z,19.78
2018-10-11T10:25:55.649Z,19.88
2018-10-11T10:28:31.099Z,19.83
2018-10-11T10:30:59.339Z,19.82
2018-10-11T10:33:27.536Z,19.95
2018-10-11T10:35:55.870Z,20.06
2018-10-11T10:38:24.239Z,19.96
2018-10-11T10:40:52.767Z,19.99
2018-10-11T10:43:21.353Z,19.90
2018-10-11T10:45:49.535Z,20.07
2018-10-11T10:48:17.731Z,20.34
2018-10-11T10:50:45.917Z,20.19
2018-10-11T10:53:14.122Z,20.31
2018-10-11T10:55:42.454Z,20.29
2018-10-11T10:58:10.651Z,20.36
2018-10-11T11:00:38.922Z,20.43
2018-10-11T11:03:07.478Z,20.41
2018-10-11T11:05:35.800Z,20.54
2018-10-11T11:08:04.082Z,20.35
2018-10-11T11:10:32.297Z,20.46
2018-10-11T11:13:00.544Z,20.64
2018-10-11T11:15:28.697Z,20.67
2018-10-11T11:17:56.941Z,20.81
2018-10-11T11:20:25.304Z,20.78
2018-10-11T11:22:53.542Z,20.75
2018-10-11T11:25:21.926Z,20.94
2018-10-11T11:27:50.076Z,20.92
2018-10-11T11:30:18.335Z,20.95
2018-10-11T11:32:46.885Z,21.06
2018-10-11T11:35:15.160Z,21.04
2018-10-11T11:37:43.377Z,20.96
2018-10-11T11:40:11.552Z,20.83
2018-10-11T11:42:39.852Z,20.84
2018-10-11T11:45:08.080Z,21.00
2018-10-11T11:47:39.758Z,21.05
2018-10-11T11:50:08.092Z,20.94
2018-10-11T11:52:36.357Z,21.29
2018-10-11T11:55:04.584Z,21.47
2018-10-11T11:57:32.824Z,21.51
2018-10-11T12:00:01.097Z,21.64
2018-10-11T12:02:29.295Z,21.41
2018-10-11T12:04:58.191Z,21.55
2018-10-11T12:07:26.374Z,21.33
2018-10-11T12:09:54.658Z,21.20
2018-10-11T12:13:08.728Z,21.26
2018-10-11T12:15:37.713Z,21.13
2018-10-11T12:18:06.758Z,21.13
2018-10-11T12:20:36.169Z,21.56
2018-10-11T12:23:05.453Z,21.44
2018-10-11T12:25:46.188Z,21.64
2018-10-11T12:28:14.439Z,21.62
2018-10-11T12:30:42.644Z,21.45
2018-10-11T12:33:10.946Z,21.47
2018-10-11T12:35:39.132Z,21.73
2018-10-11T12:38:07.482Z,21.85
2018-10-11T12:40:35.730Z,21.98
2018-10-11T12:43:03.904Z,21.88
2018-10-11T12:45:32.108Z,21.79
2018-10-11T12:48:00.363Z,21.69
2018-10-11T12:50:28.604Z,21.82
2018-10-11T12:52:57.012Z,21.62
2018-10-11T12:55:25.180Z,21.76
2018-10-11T12:57:53.382Z,21.96
2018-10-11T13:00:27.014Z,21.80
2018-10-11T13:02:55.376Z,21.83
2018-10-11T13:05:23.520Z,21.89
2018-10-11T13:07:51.837Z,21.98
2018-10-11T13:10:20.122Z,21.84
2018-10-11T13:12:49.482Z,21.78
2018-10-11T13:15:18.372Z,21.86
2018-10-11T13:17:46.552Z,21.98
2018-10-11T13:20:14.722Z,21.98
2018-10-11T13:22:43.069Z,21.82
2018-10-11T13:25:12.480Z,21.89
2018-10-11T13:27:40.678Z,21.79
2018-10-11T13:30:08.986Z,21.92
2018-10-11T13:32:37.242Z,21.99
2018-10-11T13:35:05.926Z,22.15
2018-10-11T13:37:34.176Z,22.37
2018-10-11T13:40:02.812Z,22.28
2018-10-11T13:42:30.987Z,22.40
2018-10-11T13:44:59.931Z,22.47
2018-10-11T13:47:28.298Z,22.30
2018-10-11T13:49:56.443Z,22.12
2018-10-11T13:52:24.717Z,22.16
2018-10-11T13:54:52.946Z,22.37
2018-10-11T13:57:25.932Z,22.27
2018-10-11T13:59:49.417Z,22.15
2018-10-11T14:02:17.638Z,22.11
2018-10-11T14:04:45.832Z,22.02
2018-10-11T14:07:13.986Z,22.01
2018-10-11T14:09:44.232Z,21.94
2018-10-11T14:12:12.415Z,21.95
2018-10-11T14:14:40.651Z,22.31
2018-10-11T14:17:08.929Z,22.25
2018-10-11T14:19:37.542Z,22.03
2018-10-11T14:22:05.788Z,22.04
2018-10-11T14:24:34.027Z,22.05
2018-10-11T14:27:02.264Z,22.08
2018-10-11T14:29:30.404Z,21.99
2018-10-11T14:31:58.799Z,22.08
2018-10-11T14:34:27.101Z,22.14
2018-10-11T14:36:55.401Z,22.04
2018-10-11T14:39:23.525Z,22.36
2018-10-11T14:41:51.896Z,22.41
2018-10-11T14:44:23.883Z,22.46
2018-10-11T14:46:52.089Z,22.29
2018-10-11T14:49:20.408Z,22.33
2018-10-11T14:51:48.830Z,22.37
2018-10-11T14:54:17.154Z,22.13
2018-10-11T14:56:52.213Z,21.96
2018-10-11T14:59:20.428Z,21.89
2018-10-11T15:01:48.590Z,22.27
2018-10-11T15:04:16.772Z,22.11
2018-10-11T15:06:45.096Z,21.90
2018-10-11T15:09:14.136Z,21.98
2018-10-11T15:11:42.581Z,21.82
2018-10-11T15:14:11.715Z,22.22
2018-10-11T15:16:39.981Z,22.13
2018-10-11T15:19:08.337Z,22.05
2018-10-11T15:21:37.051Z,21.97
2018-10-11T15:24:05.271Z,21.87
2018-10-11T15:26:40.422Z,22.07
2018-10-11T15:29:08.880Z,21.75
2018-10-11T15:31:37.059Z,21.97
2018-10-11T15:34:05.906Z,22.01
2018-10-11T15:36:34.181Z,21.90
2018-10-11T15:39:02.419Z,21.99
2018-10-11T15:41:30.671Z,22.21
2018-10-11T15:43:58.912Z,21.93
2018-10-11T15:46:27.160Z,21.92
2018-10-11T15:48:55.460Z,21.86
2018-10-11T15:51:23.832Z,21.57
2018-10-11T15:53:52.171Z,21.67
2018-10-11T15:56:20.456Z,21.51
2018-10-11T15:58:48.691Z,21.32
2018-10-11T16:01:17.071Z,21.11
2018-10-11T16:03:45.364Z,21.17
2018-10-11T16:06:15.744Z,20.99
2018-10-11T16:08:43.965Z,20.94
2018-10-11T16:11:12.193Z,20.70
2018-10-11T16:13:40.441Z,20.63
2018-10-11T16:16:08.690Z,20.30
2018-10-11T16:18:37.028Z,20.23
2018-10-11T16:21:05.295Z,19.99
2018-10-11T16:23:33.579Z,19.91
2018-10-11T16:26:01.855Z,19.72
2018-10-11T16:28:30.034Z,20.03
2018-10-11T16:33:25.410Z,20.02
2018-10-11T16:35:53.732Z,19.77
2018-10-11T16:38:22.008Z,19.66
2018-10-11T16:40:50.261Z,19.81
2018-10-11T16:43:18.523Z,19.63
2018-10-11T16:45:47.224Z,19.72
2018-10-11T16:48:15.418Z,19.92
2018-10-11T16:50:43.661Z,20.39
2018-10-11T16:53:11.904Z,20.46
2018-10-11T16:55:40.158Z,20.41
2018-10-11T16:58:09.040Z,20.36
2018-10-11T17:00:37.316Z,20.24
2018-10-11T17:03:05.833Z,20.03
2018-10-11T17:05:34.065Z,19.83
2018-10-11T17:08:03.973Z,19.64
2018-10-11T17:10:32.150Z,19.28
2018-10-11T17:13:00.340Z,19.13
2018-10-11T17:15:28.627Z,18.95
2018-10-11T17:17:56.786Z,18.72
2018-10-11T17:20:25.246Z,18.84
2018-10-11T17:22:53.529Z,18.80
2018-10-11T17:25:21.772Z,18.77
2018-10-11T17:27:50.080Z,18.80
2018-10-11T17:30:18.291Z,18.85
2018-10-11T17:32:46.497Z,19.04
2018-10-11T17:35:14.844Z,19.05
2018-10-11T17:37:43.289Z,19.20
2018-10-11T17:40:11.963Z,19.14
2018-10-11T17:42:40.192Z,19.09
2018-10-11T17:45:09.106Z,19.12
2018-10-11T17:47:37.711Z,19.12
2018-10-11T17:50:07.311Z,19.05
2018-10-11T17:52:35.555Z,19.04
2018-10-11T17:55:03.778Z,18.95
2018-10-11T17:57:36.056Z,19.11
2018-10-11T18:00:04.334Z,19.03
2018-10-11T18:02:33.116Z,18.86
2018-10-11T18:05:01.345Z,18.88
2018-10-11T18:07:30.452Z,18.81
2018-10-11T18:09:58.701Z,18.74
2018-10-11T18:12:26.946Z,18.74
2018-10-11T18:14:55.560Z,18.62
2018-10-11T18:17:23.802Z,18.55
2018-10-11T18:20:33.378Z,18.55
2018-10-11T18:23:02.243Z,18.60
2018-10-11T18:25:30.514Z,18.58
2018-10-11T18:27:59.946Z,18.55
2018-10-11T18:30:28.244Z,18.46
2018-10-11T18:32:56.499Z,18.47
2018-10-11T18:35:24.757Z,18.48
2018-10-11T18:37:53.210Z,18.48
2018-10-11T18:40:21.445Z,18.42
2018-10-11T18:42:49.727Z,18.37
2018-10-11T18:45:18.086Z,18.38
2018-10-11T18:47:46.326Z,18.34
2018-10-11T18:50:14.647Z,18.23
2018-10-11T18:52:42.977Z,18.17
2018-10-11T18:55:11.286Z,17.87
2018-10-11T18:57:39.525Z,17.95
2018-10-11T19:00:08.207Z,17.83
2018-10-11T19:02:36.488Z,17.85
2018-10-11T19:05:05.452Z,17.76
2018-10-11T19:07:33.747Z,17.73
2018-10-11T19:10:01.969Z,17.72
2018-10-11T19:12:30.204Z,17.79
2018-10-11T19:14:58.491Z,17.87
2018-10-11T19:17:26.782Z,17.81
2018-10-11T19:19:55.167Z,17.69
2018-10-11T19:22:23.532Z,17.50
2018-10-11T19:24:51.796Z,17.48
2018-10-11T19:27:20.147Z,17.40
2018-10-11T19:29:48.462Z,17.24
2018-10-11T19:32:16.761Z,17.21
2018-10-11T19:34:45.047Z,17.20
2018-10-11T19:37:13.405Z,17.26
2018-10-11T19:39:41.641Z,17.19
2018-10-11T19:42:09.932Z,17.20
2018-10-11T19:44:38.498Z,17.11
2018-10-11T19:47:06.793Z,16.96
2018-10-11T19:49:35.142Z,17.06
2018-10-11T19:52:03.417Z,16.92
2018-10-11T19:54:32.262Z,17.10
2018-10-11T19:57:00.536Z,17.02
2018-10-11T19:59:28.842Z,17.02
2018-10-11T20:01:57.077Z,17.04
2018-10-11T20:04:25.386Z,16.92
2018-10-11T20:06:53.729Z,16.85
2018-10-11T20:09:22.019Z,16.79
2018-10-11T20:11:50.282Z,16.89
2018-10-11T20:14:18.797Z,16.90
2018-10-11T20:16:47.128Z,16.88
2018-10-11T20:19:15.428Z,16.82
2018-10-11T20:21:43.722Z,16.88
2018-10-11T20:24:12.073Z,16.68
2018-10-11T20:26:40.426Z,16.61
2018-10-11T20:29:08.648Z,16.60
2018-10-11T20:31:36.920Z,16.72
2018-10-11T20:34:05.288Z,16.50
2018-10-11T20:36:33.519Z,16.44
2018-10-11T20:39:01.809Z,16.30
2018-10-11T20:41:30.138Z,16.49
2018-10-11T20:43:58.536Z,16.49
2018-10-11T20:46:27.283Z,16.46
2018-10-11T20:48:55.514Z,16.45
2018-10-11T20:51:23.732Z,16.47
2018-10-11T20:53:52.039Z,16.48
2018-10-11T20:56:20.475Z,16.33
2018-10-11T20:58:49.046Z,16.30
2018-10-11T21:01:17.281Z,16.40
2018-10-11T21:03:45.473Z,16.37
2018-10-11T21:06:13.635Z,16.08
2018-10-11T21:08:41.810Z,16.10
2018-10-11T21:11:10.124Z,16.14
2018-10-11T21:13:38.385Z,16.04
2018-10-11T21:16:06.927Z,16.09
2018-10-11T21:18:35.289Z,16.02
2018-10-11T21:21:03.613Z,15.85
2018-10-11T21:23:31.811Z,15.80
2018-10-11T21:26:00.039Z,15.75
2018-10-11T21:28:28.208Z,15.63
2018-10-11T21:30:56.410Z,15.48
2018-10-11T21:33:25.252Z,15.51
2018-10-11T21:35:53.442Z,15.36
2018-10-11T21:38:21.648Z,15.20
2018-10-11T21:40:49.899Z,15.20
2018-10-11T21:43:18.226Z,15.18
2018-10-11T21:45:46.390Z,15.34
2018-10-11T21:48:14.526Z,15.27
2018-10-11T21:50:43.056Z,15.29
2018-10-11T21:53:11.325Z,15.31
2018-10-11T21:55:39.493Z,15.31
2018-10-11T21:58:07.688Z,15.38
2018-10-11T22:00:41.386Z,15.55
2018-10-11T22:03:09.805Z,15.43
2018-10-11T22:05:38.056Z,15.32
2018-10-11T22:08:06.248Z,15.31
2018-10-11T22:10:34.399Z,15.23
2018-10-11T22:13:02.567Z,15.26
2018-10-11T22:15:30.870Z,15.38
2018-10-11T22:17:59.120Z,15.28
2018-10-11T22:20:27.286Z,15.33
2018-10-11T22:22:55.706Z,15.29
2018-10-11T22:25:24.348Z,15.15
2018-10-11T22:27:52.578Z,15.14
2018-10-11T22:30:20.770Z,15.29
2018-10-11T22:32:48.972Z,15.45
2018-10-11T22:35:17.110Z,15.42
2018-10-11T22:37:45.285Z,15.35
2018-10-11T22:40:13.464Z,15.09
2018-10-11T22:42:41.641Z,15.19
2018-10-11T22:45:09.793Z,15.25
2018-10-11T22:47:38.016Z,15.19
2018-10-11T22:50:06.204Z,15.16
2018-10-11T22:52:34.406Z,15.10
2018-10-11T22:55:02.538Z,15.11
2018-10-11T22:57:30.714Z,15.12
2018-10-11T22:59:58.957Z,15.05
2018-10-11T23:02:27.158Z,15.11
2018-10-11T23:04:55.349Z,15.03
2018-10-11T23:07:23.557Z,15.08
2018-10-11T23:09:51.729Z,15.08
2018-10-11T23:12:19.940Z,14.94
2018-10-11T23:14:48.213Z,15.10
2018-10-11T23:17:16.367Z,15.13
2018-10-11T23:19:44.568Z,14.88
2018-10-11T23:22:12.721Z,14.82
2018-10-11T23:24:40.875Z,14.82
2018-10-11T23:27:09.059Z,14.77
2018-10-11T23:29:37.270Z,14.85
2018-10-11T23:32:05.515Z,14.80
2018-10-11T23:34:33.673Z,14.77
2018-10-11T23:37:01.923Z,14.87
2018-10-11T23:39:30.069Z,14.90
2018-10-11T23:41:58.295Z,14.82
2018-10-11T23:44:26.514Z,14.90
2018-10-11T23:46:54.722Z,14.92
2018-10-11T23:49:22.918Z,14.91
2018-10-11T23:51:51.061Z,14.74
2018-10-11T23:54:19.270Z,14.66
2018-10-11T23:56:47.457Z,14.57
2018-10-11T23:59:15.643Z,14.81
